createdAt,value
2019-05-02T00:01:15.460Z,46.85
2019-05-02T00:03:46.841Z,47.27
2019-05-02T00:06:19.152Z,47.38
2019-05-02T00:08:52.089Z,47.19
2019-05-02T00:11:24.207Z,46.98
2019-05-02T00:13:55.227Z,46.83
2019-05-02T00:16:27.347Z,47.00
2019-05-02T00:18:59.513Z,47.46
2019-05-02T00:21:32.893Z,47.16
2019-05-02T00:24:04.235Z,47.03
2019-05-02T00:26:35.866Z,47.19
2019-05-02T00:29:09.795Z,47.30
2019-05-02T00:31:41.959Z,47.86
2019-05-02T00:34:11.981Z,47.72
2019-05-02T00:36:46.804Z,47.68
2019-05-02T00:39:18.475Z,47.85
2019-05-02T00:41:50.007Z,47.67
2019-05-02T00:44:22.347Z,47.75
2019-05-02T00:46:56.648Z,47.80
2019-05-02T00:49:30.747Z,47.24
2019-05-02T00:52:07.806Z,47.35
2019-05-02T00:54:38.013Z,47.47
2019-05-02T00:57:14.976Z,47.60
2019-05-02T00:59:45.588Z,47.55
2019-05-02T01:02:41.864Z,47.68
2019-05-02T01:05:15.320Z,47.80
2019-05-02T01:07:47.183Z,47.66
2019-05-02T01:10:21.347Z,47.66
2019-05-02T01:12:51.047Z,47.67
2019-05-02T01:15:21.304Z,47.61
2019-05-02T01:17:53.270Z,47.57
2019-05-02T01:20:27.724Z,47.98
2019-05-02T01:22:57.615Z,47.68
2019-05-02T01:25:28.207Z,47.91
2019-05-02T01:28:18.835Z,47.83
2019-05-02T01:31:28.288Z,47.83
2019-05-02T01:34:27.601Z,47.58
2019-05-02T01:37:05.318Z,47.77
2019-05-02T01:39:37.965Z,47.72
2019-05-02T01:42:09.906Z,48.52
2019-05-02T01:44:43.515Z,48.31
2019-05-02T01:47:14.021Z,47.94
2019-05-02T01:49:46.119Z,48.20
2019-05-02T01:55:17.094Z,48.44
2019-05-02T01:57:50.066Z,48.16
2019-05-02T02:00:21.591Z,48.25
2019-05-02T02:02:53.807Z,48.40
2019-05-02T02:05:27.652Z,48.29
2019-05-02T02:07:57.440Z,48.28
2019-05-02T02:10:29.497Z,48.35
2019-05-02T02:13:04.701Z,48.26
2019-05-02T02:15:33.766Z,48.32
2019-05-02T02:18:05.191Z,48.31
2019-05-02T02:20:52.166Z,48.47
2019-05-02T02:23:31.954Z,48.56
2019-05-02T02:26:11.402Z,48.45
2019-05-02T02:28:39.529Z,48.75
2019-05-02T02:31:13.067Z,48.71
2019-05-02T02:33:48.114Z,49.60
2019-05-02T02:36:16.413Z,48.93
2019-05-02T02:38:47.727Z,49.01
2019-05-02T02:41:22.574Z,49.01
2019-05-02T02:44:13.195Z,49.08
2019-05-02T02:46:45.450Z,49.20
2019-05-02T02:49:21.237Z,48.92
2019-05-02T02:51:50.935Z,48.87
2019-05-02T02:54:22.681Z,48.68
2019-05-02T02:56:56.166Z,49.08
2019-05-02T02:59:28.194Z,49.03
2019-05-02T03:02:08.983Z,49.30
2019-05-02T03:04:33.435Z,48.75
2019-05-02T03:07:08.047Z,48.66
2019-05-02T03:09:40.804Z,48.41
2019-05-02T03:12:29.091Z,48.79
2019-05-02T03:15:03.127Z,48.44
2019-05-02T03:17:34.869Z,48.00
2019-05-02T03:20:06.775Z,48.42
2019-05-02T03:22:41.867Z,48.32
2019-05-02T03:25:18.372Z,48.47
2019-05-02T03:27:48.813Z,47.96
2019-05-02T03:30:32.259Z,48.67
2019-05-02T03:33:06.452Z,48.63
2019-05-02T03:35:41.885Z,48.43
2019-05-02T03:38:03.857Z,48.34
2019-05-02T03:40:39.077Z,48.40
2019-05-02T03:43:11.259Z,48.19
2019-05-02T03:45:43.191Z,48.08
2019-05-02T03:48:18.457Z,48.53
2019-05-02T03:50:46.450Z,48.31
2019-05-02T03:53:25.061Z,47.99
2019-05-02T03:55:53.911Z,48.69
2019-05-02T03:58:26.956Z,48.10
2019-05-02T04:01:02.080Z,48.16
2019-05-02T04:03:33.849Z,47.98
2019-05-02T04:06:05.126Z,48.09
2019-05-02T04:08:37.312Z,47.84
2019-05-02T04:11:26.529Z,47.78
2019-05-02T04:13:58.485Z,47.87
2019-05-02T04:16:31.010Z,47.89
2019-05-02T04:19:07.333Z,47.46
2019-05-02T04:21:39.719Z,47.84
2019-05-02T04:24:15.678Z,47.80
2019-05-02T04:26:54.299Z,47.82
2019-05-02T04:29:24.436Z,47.62
2019-05-02T04:31:56.422Z,47.65
2019-05-02T04:34:27.075Z,47.74
2019-05-02T04:37:01.177Z,47.73
2019-05-02T04:39:31.487Z,47.51
2019-05-02T04:42:11.628Z,47.72
2019-05-02T04:44:46.348Z,47.94
2019-05-02T04:47:17.490Z,48.25
2019-05-02T04:49:51.860Z,47.67
2019-05-02T04:52:21.388Z,47.62
2019-05-02T04:55:08.002Z,47.93
2019-05-02T04:57:36.855Z,47.51
2019-05-02T05:00:08.453Z,47.48
2019-05-02T05:02:39.965Z,48.15
2019-05-02T05:05:10.563Z,49.10
2019-05-02T05:07:46.255Z,48.33
2019-05-02T05:10:14.617Z,48.21
2019-05-02T05:12:48.011Z,48.79
2019-05-02T05:15:35.823Z,48.18
2019-05-02T05:17:53.622Z,47.91
2019-05-02T05:20:25.106Z,47.96
2019-05-02T05:22:58.746Z,48.35
2019-05-02T05:25:37.919Z,47.16
2019-05-02T05:28:09.040Z,47.50
2019-05-02T05:30:45.317Z,47.25
2019-05-02T05:33:13.473Z,47.02
2019-05-02T05:35:48.756Z,46.84
2019-05-02T05:38:22.944Z,46.54
2019-05-02T05:40:55.376Z,46.90
2019-05-02T05:43:27.540Z,46.69
2019-05-02T05:46:09.241Z,47.15
2019-05-02T05:48:37.139Z,49.05
2019-05-02T05:51:07.263Z,48.13
2019-05-02T05:53:37.859Z,48.21
2019-05-02T05:56:11.448Z,49.95
2019-05-02T05:58:48.153Z,49.11
2019-05-02T06:01:20.355Z,49.19
2019-05-02T06:03:52.594Z,48.73
2019-05-02T06:06:24.577Z,48.48
2019-05-02T06:09:01.538Z,48.32
2019-05-02T06:11:33.139Z,49.60
2019-05-02T06:14:03.333Z,48.96
2019-05-02T06:16:35.589Z,48.67
2019-05-02T06:19:06.510Z,48.20
2019-05-02T06:21:39.975Z,47.75
2019-05-02T06:24:10.922Z,48.27
2019-05-02T06:26:44.664Z,48.51
2019-05-02T06:29:18.728Z,48.65
2019-05-02T06:31:52.954Z,48.38
2019-05-02T06:34:23.152Z,48.63
2019-05-02T06:36:53.331Z,48.47
2019-05-02T06:39:31.528Z,49.58
2019-05-02T06:42:01.585Z,47.95
2019-05-02T06:44:32.661Z,46.97
2019-05-02T06:47:05.729Z,45.89
2019-05-02T06:49:38.482Z,45.48
2019-05-02T06:52:10.483Z,45.03
2019-05-02T06:54:41.684Z,44.86
2019-05-02T06:57:19.132Z,44.32
2019-05-02T06:59:54.660Z,44.07
2019-05-02T07:02:28.308Z,44.14
2019-05-02T07:05:00.817Z,44.16
2019-05-02T07:07:37.107Z,45.41
2019-05-02T07:10:09.209Z,44.79
2019-05-02T07:12:46.138Z,45.47
2019-05-02T07:15:43.477Z,46.27
2019-05-02T07:18:15.066Z,46.58
2019-05-02T07:20:47.306Z,45.97
2019-05-02T07:23:18.371Z,45.97
2019-05-02T07:25:53.026Z,46.41
2019-05-02T07:28:28.947Z,46.21
2019-05-02T07:31:00.320Z,48.02
2019-05-02T07:33:37.013Z,46.66
2019-05-02T07:36:05.933Z,46.83
2019-05-02T07:38:36.542Z,46.41
2019-05-02T07:41:08.333Z,44.66
2019-05-02T07:43:40.748Z,44.96
2019-05-02T07:46:16.273Z,45.24
2019-05-02T07:48:49.044Z,45.00
2019-05-02T07:51:21.261Z,45.90
2019-05-02T07:53:55.491Z,45.85
2019-05-02T07:56:27.930Z,46.26
2019-05-02T07:59:04.601Z,45.47
2019-05-02T08:01:36.971Z,45.78
2019-05-02T08:04:11.326Z,45.76
2019-05-02T08:06:44.652Z,45.95
2019-05-02T08:09:16.338Z,45.21
2019-05-02T08:11:49.715Z,45.08
2019-05-02T08:14:24.237Z,44.23
2019-05-02T08:17:05.289Z,45.02
2019-05-02T08:19:49.969Z,44.79
2019-05-02T08:22:24.558Z,44.21
2019-05-02T08:24:55.878Z,46.12
2019-05-02T08:27:41.465Z,45.35
2019-05-02T08:30:24.955Z,44.49
2019-05-02T08:33:01.467Z,43.33
2019-05-02T08:35:32.758Z,43.43
2019-05-02T08:38:03.938Z,43.12
2019-05-02T08:40:34.435Z,43.82
2019-05-02T08:43:09.006Z,42.79
2019-05-02T08:45:39.619Z,42.29
2019-05-02T08:48:12.802Z,41.70
2019-05-02T08:50:43.373Z,40.94
2019-05-02T08:53:19.679Z,41.44
2019-05-02T08:55:47.726Z,40.39
2019-05-02T08:58:18.828Z,39.99
2019-05-02T09:00:50.496Z,39.98
2019-05-02T09:03:25.491Z,39.95
2019-05-02T09:06:05.506Z,37.40
2019-05-02T09:08:30.868Z,38.39
2019-05-02T09:11:02.722Z,38.27
2019-05-02T09:13:34.868Z,38.23
2019-05-02T09:16:06.126Z,38.46
2019-05-02T09:18:50.519Z,37.82
2019-05-02T09:21:16.821Z,37.93
2019-05-02T09:23:51.740Z,37.41
2019-05-02T09:26:35.202Z,37.67
2019-05-02T09:29:01.686Z,38.07
2019-05-02T09:31:36.819Z,37.57
2019-05-02T09:34:08.759Z,36.54
2019-05-02T09:36:38.951Z,37.06
2019-05-02T09:39:13.003Z,37.14
2019-05-02T09:41:45.644Z,35.86
2019-05-02T09:44:18.743Z,36.03
2019-05-02T09:46:53.109Z,37.90
2019-05-02T09:49:22.060Z,37.84
2019-05-02T09:51:59.227Z,36.65
2019-05-02T09:54:27.087Z,36.26
2019-05-02T09:56:57.865Z,36.66
2019-05-02T09:59:33.429Z,36.61
2019-05-02T10:02:09.381Z,36.36
2019-05-02T10:04:44.117Z,35.15
2019-05-02T10:07:15.947Z,35.15
2019-05-02T10:09:49.381Z,34.40
2019-05-02T10:12:22.983Z,34.35
2019-05-02T10:14:55.255Z,34.40
2019-05-02T10:17:27.958Z,34.38
2019-05-02T10:19:59.281Z,34.38
2019-05-02T10:22:32.321Z,35.29
2019-05-02T10:25:04.192Z,35.03
2019-05-02T10:27:38.461Z,36.41
2019-05-02T10:30:14.831Z,35.93
2019-05-02T10:32:47.155Z,34.72
2019-05-02T10:35:19.555Z,34.70
2019-05-02T10:37:49.719Z,36.00
2019-05-02T10:40:22.528Z,36.73
2019-05-02T10:42:54.106Z,36.44
2019-05-02T10:45:25.598Z,34.54
2019-05-02T10:47:57.767Z,35.03
2019-05-02T10:50:36.295Z,35.23
2019-05-02T10:53:11.876Z,35.04
2019-05-02T10:55:43.232Z,33.78
2019-05-02T10:58:14.441Z,33.49
2019-05-02T11:00:45.591Z,33.73
2019-05-02T11:03:46.190Z,32.78
2019-05-02T11:06:12.594Z,32.24
2019-05-02T11:08:46.113Z,31.65
2019-05-02T11:11:21.918Z,31.00
2019-05-02T11:14:05.602Z,33.11
2019-05-02T11:16:43.914Z,32.95
2019-05-02T11:19:33.884Z,30.11
2019-05-02T11:22:06.979Z,32.68
2019-05-02T11:24:41.700Z,31.70
2019-05-02T11:27:14.627Z,31.38
2019-05-02T11:29:46.699Z,31.62
2019-05-02T11:32:16.987Z,31.38
2019-05-02T11:34:48.214Z,32.62
2019-05-02T11:37:19.429Z,31.17
2019-05-02T11:40:04.463Z,30.11
2019-05-02T11:42:34.349Z,29.25
2019-05-02T11:45:05.980Z,29.33
2019-05-02T11:47:37.047Z,29.11
2019-05-02T11:50:08.735Z,29.30
2019-05-02T11:52:39.319Z,28.85
2019-05-02T11:55:13.099Z,27.25
2019-05-02T11:57:45.023Z,27.59
2019-05-02T12:00:17.677Z,28.16
2019-05-02T12:02:58.579Z,27.99
2019-05-02T12:05:39.180Z,26.96
2019-05-02T12:08:12.328Z,24.89
2019-05-02T12:10:42.980Z,26.24
2019-05-02T12:13:16.111Z,26.05
2019-05-02T12:15:51.888Z,26.34
2019-05-02T12:18:25.626Z,26.36
2019-05-02T12:20:57.186Z,27.33
2019-05-02T12:23:27.737Z,25.46
2019-05-02T12:26:05.978Z,25.82
2019-05-02T12:28:38.992Z,25.88
2019-05-02T12:31:22.691Z,27.23
2019-05-02T12:33:53.532Z,26.48
2019-05-02T12:36:27.207Z,26.24
2019-05-02T12:38:58.298Z,26.35
2019-05-02T12:41:28.905Z,27.55
2019-05-02T12:43:59.106Z,27.90
2019-05-02T12:46:33.101Z,28.52
2019-05-02T12:49:03.945Z,26.79
2019-05-02T12:51:34.211Z,26.44
2019-05-02T12:54:05.551Z,26.95
2019-05-02T12:56:37.034Z,26.66
2019-05-02T12:59:08.188Z,27.61
2019-05-02T13:01:42.026Z,26.71
2019-05-02T13:04:14.176Z,26.37
2019-05-02T13:06:46.252Z,25.80
2019-05-02T13:09:17.190Z,27.50
2019-05-02T13:12:02.799Z,28.42
2019-05-02T13:14:33.283Z,24.96
2019-05-02T13:17:05.953Z,25.85
2019-05-02T13:19:41.222Z,27.40
2019-05-02T13:22:21.800Z,24.80
2019-05-02T13:24:58.338Z,25.27
2019-05-02T13:27:32.210Z,23.58
2019-05-02T13:30:03.408Z,23.07
2019-05-02T13:32:42.687Z,23.50
2019-05-02T13:35:26.237Z,24.36
2019-05-02T13:37:59.906Z,25.35
2019-05-02T13:40:35.882Z,24.11
2019-05-02T13:43:07.405Z,25.01
2019-05-02T13:46:09.380Z,25.53
2019-05-02T13:48:43.025Z,24.80
2019-05-02T13:51:14.589Z,24.71
2019-05-02T13:53:57.300Z,24.99
2019-05-02T13:56:46.291Z,24.02
2019-05-02T13:59:18.738Z,25.10
2019-05-02T14:01:52.202Z,24.00
2019-05-02T14:04:24.147Z,23.74
2019-05-02T14:06:58.960Z,23.80
2019-05-02T14:09:53.046Z,22.56
2019-05-02T14:12:46.651Z,22.61
2019-05-02T14:15:22.120Z,23.33
2019-05-02T14:17:56.351Z,22.96
2019-05-02T14:20:28.757Z,23.51
2019-05-02T14:23:02.270Z,24.39
2019-05-02T14:25:34.480Z,25.44
2019-05-02T14:28:08.233Z,26.05
2019-05-02T14:30:41.962Z,26.69
2019-05-02T14:33:19.958Z,25.76
2019-05-02T14:35:54.308Z,27.85
2019-05-02T14:38:32.076Z,27.56
2019-05-02T14:41:15.901Z,26.31
2019-05-02T14:44:05.215Z,27.24
2019-05-02T14:46:39.263Z,28.44
2019-05-02T14:49:07.054Z,28.59
2019-05-02T14:51:37.745Z,29.34
2019-05-02T14:54:11.923Z,28.78
2019-05-02T14:57:01.966Z,28.93
2019-05-02T14:59:33.363Z,28.79
2019-05-02T15:02:07.949Z,29.35
2019-05-02T15:04:44.597Z,29.59
2019-05-02T15:07:17.667Z,29.74
2019-05-02T15:09:47.697Z,30.59
2019-05-02T15:12:19.235Z,31.25
2019-05-02T15:14:57.504Z,32.03
2019-05-02T15:17:28.055Z,32.44
2019-05-02T15:19:58.227Z,33.06
2019-05-02T15:22:33.095Z,33.48
2019-05-02T15:25:07.891Z,34.18
2019-05-02T15:27:41.986Z,33.82
2019-05-02T15:30:09.924Z,34.28
2019-05-02T15:32:52.779Z,34.89
2019-05-02T15:35:52.719Z,35.31
2019-05-02T15:38:27.998Z,35.12
2019-05-02T15:41:06.976Z,34.77
2019-05-02T15:43:39.299Z,34.36
2019-05-02T15:46:15.662Z,34.64
2019-05-02T15:48:43.809Z,34.40
2019-05-02T15:51:14.444Z,34.31
2019-05-02T15:54:05.381Z,34.77
2019-05-02T15:56:27.727Z,34.79
2019-05-02T15:59:04.230Z,35.58
2019-05-02T16:01:53.335Z,35.90
2019-05-02T16:04:26.939Z,35.82
2019-05-02T16:07:06.777Z,36.79
2019-05-02T16:09:37.301Z,38.40
2019-05-02T16:12:08.435Z,41.83
2019-05-02T16:14:42.706Z,46.17
2019-05-02T16:17:17.700Z,48.36
2019-05-02T16:19:58.647Z,48.95
2019-05-02T16:22:26.367Z,50.14
2019-05-02T16:25:01.635Z,49.29
2019-05-02T16:27:47.057Z,49.74
2019-05-02T16:30:22.338Z,50.59
2019-05-02T16:32:59.268Z,50.31
2019-05-02T16:35:33.108Z,52.29
2019-05-02T16:38:04.367Z,52.51
2019-05-02T16:40:35.688Z,52.90
2019-05-02T16:43:12.195Z,53.47
2019-05-02T16:45:43.935Z,56.23
2019-05-02T16:48:15.654Z,54.75
2019-05-02T16:50:46.233Z,54.57
2019-05-02T16:53:17.147Z,55.20
2019-05-02T16:55:49.741Z,53.88
2019-05-02T16:58:21.354Z,53.68
2019-05-02T17:00:58.037Z,54.15
2019-05-02T17:03:28.649Z,53.57
2019-05-02T17:06:01.664Z,53.25
2019-05-02T17:08:57.344Z,53.98
2019-05-02T17:11:35.961Z,52.84
2019-05-02T17:14:11.990Z,54.60
2019-05-02T17:16:47.075Z,54.16
2019-05-02T17:19:26.115Z,53.42
2019-05-02T17:21:57.395Z,52.51
2019-05-02T17:24:28.750Z,52.96
2019-05-02T17:27:03.489Z,53.70
2019-05-02T17:29:35.137Z,53.44
2019-05-02T17:32:08.928Z,53.53
2019-05-02T17:34:42.556Z,53.64
2019-05-02T17:37:14.037Z,53.49
2019-05-02T17:39:47.513Z,54.28
2019-05-02T17:42:22.355Z,53.61
2019-05-02T17:44:51.813Z,54.42
2019-05-02T17:47:23.248Z,53.32
2019-05-02T17:49:57.014Z,53.93
2019-05-02T17:52:50.552Z,52.86
2019-05-02T17:55:21.494Z,53.95
2019-05-02T17:57:54.792Z,52.16
2019-05-02T18:00:30.029Z,53.29
2019-05-02T18:03:02.519Z,53.17
2019-05-02T18:05:35.671Z,53.09
2019-05-02T18:08:10.967Z,53.31
2019-05-02T18:10:41.805Z,53.10
2019-05-02T18:13:17.559Z,53.41
2019-05-02T18:15:50.524Z,53.12
2019-05-02T18:18:24.249Z,52.90
2019-05-02T18:20:55.659Z,52.61
2019-05-02T18:23:28.810Z,52.61
2019-05-02T18:26:04.411Z,53.21
2019-05-02T18:28:47.045Z,52.93
2019-05-02T18:31:17.319Z,52.89
2019-05-02T18:33:48.019Z,52.77
2019-05-02T18:36:23.903Z,53.61
2019-05-02T18:38:54.252Z,53.01
2019-05-02T18:41:23.006Z,53.41
2019-05-02T18:43:55.084Z,52.64
2019-05-02T18:46:25.649Z,53.56
2019-05-02T18:48:58.324Z,52.73
2019-05-02T18:51:32.079Z,53.41
2019-05-02T18:54:07.356Z,53.56
2019-05-02T18:56:42.828Z,53.44
2019-05-02T18:59:14.154Z,53.52
2019-05-02T19:01:47.417Z,53.59
2019-05-02T19:04:17.163Z,53.83
2019-05-02T19:06:49.097Z,54.18
2019-05-02T19:09:25.006Z,54.28
2019-05-02T19:12:04.964Z,54.32
2019-05-02T19:14:28.228Z,54.09
2019-05-02T19:17:07.289Z,54.96
2019-05-02T19:19:38.898Z,55.55
2019-05-02T19:22:13.216Z,54.56
2019-05-02T19:24:42.434Z,54.39
2019-05-02T19:27:14.279Z,54.48
2019-05-02T19:29:49.480Z,54.88
2019-05-02T19:32:26.954Z,54.81
2019-05-02T19:34:57.820Z,54.49
2019-05-02T19:37:31.630Z,54.47
2019-05-02T19:40:03.085Z,54.96
2019-05-02T19:42:35.075Z,54.95
2019-05-02T19:45:11.484Z,54.60
2019-05-02T19:47:39.488Z,54.50
2019-05-02T19:50:41.461Z,54.35
2019-05-02T19:53:14.858Z,54.48
2019-05-02T19:55:43.874Z,54.58
2019-05-02T19:58:15.126Z,54.49
2019-05-02T20:00:46.649Z,55.49
2019-05-02T20:03:22.024Z,54.44
2019-05-02T20:05:56.682Z,54.56
2019-05-02T20:08:28.281Z,54.56
2019-05-02T20:10:58.644Z,54.60
2019-05-02T20:13:32.354Z,54.69
2019-05-02T20:16:11.989Z,54.30
2019-05-02T20:18:46.983Z,54.94
2019-05-02T20:21:27.893Z,56.26
2019-05-02T20:23:57.798Z,54.93
2019-05-02T20:26:29.823Z,55.27
2019-05-02T20:29:02.071Z,54.99
2019-05-02T20:31:33.225Z,55.12
2019-05-02T20:34:04.557Z,55.44
2019-05-02T20:36:37.278Z,55.58
2019-05-02T20:39:11.769Z,55.63
2019-05-02T20:41:42.831Z,55.29
2019-05-02T20:44:14.330Z,54.90
2019-05-02T20:46:46.755Z,55.32
2019-05-02T20:49:17.984Z,55.67
2019-05-02T20:51:48.297Z,55.63
2019-05-02T20:54:19.205Z,55.85
2019-05-02T20:56:49.430Z,55.23
2019-05-02T20:59:21.707Z,55.15
2019-05-02T21:01:53.850Z,55.12
2019-05-02T21:04:32.080Z,55.83
2019-05-02T21:07:16.194Z,55.02
2019-05-02T21:09:52.564Z,54.99
2019-05-02T21:12:22.834Z,54.80
2019-05-02T21:14:55.296Z,55.17
2019-05-02T21:17:30.157Z,55.69
2019-05-02T21:20:01.944Z,55.14
2019-05-02T21:22:33.350Z,54.90
2019-05-02T21:25:03.986Z,54.99
2019-05-02T21:27:34.662Z,55.32
2019-05-02T21:30:07.011Z,55.45
2019-05-02T21:32:39.299Z,55.15
2019-05-02T21:35:11.911Z,53.96
2019-05-02T21:37:42.551Z,53.89
2019-05-02T21:40:17.139Z,53.37
2019-05-02T21:42:48.655Z,53.67
2019-05-02T21:45:22.156Z,53.61
2019-05-02T21:47:54.010Z,52.65
2019-05-02T21:50:39.731Z,53.13
2019-05-02T21:53:38.725Z,52.99
2019-05-02T21:56:18.863Z,53.39
2019-05-02T21:59:05.593Z,53.05
2019-05-02T22:01:44.993Z,53.82
2019-05-02T22:04:19.282Z,52.45
2019-05-02T22:06:54.135Z,52.96
2019-05-02T22:09:26.505Z,53.32
2019-05-02T22:11:57.835Z,52.97
2019-05-02T22:14:28.653Z,52.62
2019-05-02T22:17:02.339Z,53.20
2019-05-02T22:19:35.656Z,52.96
2019-05-02T22:22:07.252Z,52.80
2019-05-02T22:24:39.756Z,53.55
2019-05-02T22:27:12.381Z,53.51
2019-05-02T22:29:43.227Z,53.08
2019-05-02T22:32:15.169Z,53.38
2019-05-02T22:34:49.341Z,53.20
2019-05-02T22:37:24.967Z,53.04
2019-05-02T22:40:03.664Z,53.50
2019-05-02T22:42:33.399Z,53.14
2019-05-02T22:45:05.268Z,53.80
2019-05-02T22:47:38.742Z,53.21
2019-05-02T22:50:09.701Z,53.04
2019-05-02T22:52:41.565Z,52.82
2019-05-02T22:55:12.285Z,53.77
2019-05-02T22:57:43.965Z,53.45
2019-05-02T23:00:16.304Z,52.74
2019-05-02T23:02:47.341Z,52.22
2019-05-02T23:05:20.748Z,52.10
2019-05-02T23:07:52.705Z,54.03
2019-05-02T23:10:27.704Z,52.93
2019-05-02T23:13:02.312Z,52.72
2019-05-02T23:15:33.171Z,52.53
2019-05-02T23:18:04.779Z,52.89
2019-05-02T23:20:42.188Z,52.11
2019-05-02T23:23:16.271Z,52.57
2019-05-02T23:26:08.343Z,53.07
2019-05-02T23:28:42.809Z,52.71
2019-05-02T23:31:14.217Z,52.96
2019-05-02T23:34:02.075Z,52.48
2019-05-02T23:36:34.353Z,53.10
2019-05-02T23:39:08.078Z,53.05
2019-05-02T23:41:42.075Z,52.86
2019-05-02T23:44:13.879Z,52.71
2019-05-02T23:46:44.432Z,53.06
2019-05-02T23:49:15.858Z,52.66
2019-05-02T23:51:49.295Z,52.59
2019-05-02T23:54:21.904Z,52.31
2019-05-02T23:56:52.426Z,51.65
2019-05-02T23:59:23.562Z,52.25
